| time (UTC) | temp F | wind direction | speed knots | gust knots | rain 1hr in | rain 24hr in | rain mn in | humidity % | barometer mb |
| 20260901190025 | 66 | 211 | 1.7 | 4.3 | 0.00 | 0.00 | 0.00 | 73 | 1009.8 |
| 20260901184525 | 65 | 184 | 2.6 | 5.2 | 0.00 | 0.00 | 0.00 | 75 | 1009.7 |
| 20260901183042 | 64 | 237 | 1.7 | 5.2 | 0.00 | 0.00 | 0.00 | 79 | 1009.7 |
| 20260901181531 | 63 | 219 | 2.6 | 4.3 | 0.00 | 0.00 | 0.00 | 78 | 1009.8 |
| 20260901180018 | 62 | 186 | 1.7 | 6.1 | 0.00 | 0.00 | 0.00 | 83 | 1009.8 |
| 20260901174519 | 59 | 211 | 1.7 | 7.8 | 0.00 | 0.00 | 0.00 | 87 | 1009.8 |
| 20260901173023 | 58 | 248 | 4.3 | 7.8 | 0.00 | 0.00 | 0.00 | 87 | 1009.8 |
| 20260901171527 | 58 | 176 | 1.7 | 7.0 | 0.00 | 0.00 | 0.00 | 89 | 1009.8 |
| 20260901170012 | 57 | 203 | 0.9 | 3.5 | 0.00 | 0.00 | 0.00 | 89 | 1009.8 |
| 20260901164516 | 57 | 253 | 1.7 | 4.3 | 0.00 | 0.00 | 0.00 | 89 | 1009.6 |
| 20260901163019 | 57 | 207 | 0.9 | 2.6 | 0.00 | 0.00 | 0.00 | 90 | 1009.6 |
| 20260901161529 | 56 | 252 | 0.9 | 4.3 | 0.00 | 0.00 | 0.00 | 90 | 1009.7 |
| 20260901160008 | 56 | 240 | 0.9 | 4.3 | 0.00 | 0.00 | 0.00 | 90 | 1009.7 |
| 20260901154511 | 55 | 252 | 0.0 | 1.7 | 0.00 | 0.00 | 0.00 | 90 | 1009.8 |
| 20260901153020 | 54 | 233 | 0.0 | 0.0 | 0.00 | 0.00 | 0.00 | 91 | 1009.8 |
| 20260901151533 | 53 | 216 | 0.0 | 0.0 | 0.00 | 0.00 | 0.00 | 91 | 1009.7 |
| 20260901150002 | 51 | 216 | 0.0 | 0.0 | 0.00 | 0.00 | 0.00 | 91 | 1009.5 |
| 20260901144506 | 50 | 216 | 0.0 | 0.0 | 0.00 | 0.00 | 0.00 | 91 | 1009.4 |
| 20260901143010 | 50 | 216 | 0.0 | 0.0 | 0.00 | 0.00 | 0.00 | 91 | 1009.2 |
| 20260901141513 | 49 | 216 | 0.0 | 0.0 | 0.00 | 0.00 | 0.00 | 91 | 1009.2 |
| 20260901140005 | 48 | 216 | 0.0 | 0.0 | 0.00 | 0.00 | 0.00 | 91 | 1009.1 |
| 20260901134517 | 47 | 216 | 0.0 | 0.0 | 0.00 | 0.00 | 0.00 | 91 | 1008.9 |
| 20260901133020 | 47 | 216 | 0.0 | 0.0 | 0.00 | 0.00 | 0.00 | 91 | 1008.9 |
| 20260901131512 | 46 | 216 | 0.0 | 0.0 | 0.00 | 0.00 | 0.00 | 91 | 1008.8 |
| 20260901130112 | 46 | 216 | 0.0 | 0.0 | 0.00 | 0.00 | 0.00 | 91 | 1008.8 |
| 20260901124601 | 46 | 216 | 0.0 | 0.0 | 0.00 | 0.00 | 0.00 | 91 | 1008.9 |
| 20260901123101 | 46 | 216 | 0.0 | 0.0 | 0.00 | 0.00 | 0.00 | 91 | 1008.9 |
| 20260901121608 | 46 | 216 | 0.0 | 0.0 | 0.00 | 0.00 | 0.00 | 91 | 1009.0 |
| 20260901120107 | 46 | 216 | 0.0 | 0.0 | 0.00 | 0.00 | 0.00 | 91 | 1009.0 |
| 20260901114508 | 47 | 216 | 0.0 | 0.0 | 0.00 | 0.00 | 0.00 | 91 | 1008.9 |
| 20260901113009 | 46 | 216 | 0.0 | 0.0 | 0.00 | 0.00 | 0.00 | 91 | 1008.8 |
| 20260901111523 | 47 | 216 | 0.0 | 0.0 | 0.00 | 0.00 | 0.00 | 91 | 1008.9 |
| 20260901110011 | 46 | 216 | 0.0 | 0.0 | 0.00 | 0.00 | 0.00 | 91 | 1008.9 |
| 20260901104511 | 47 | 216 | 0.0 | 0.0 | 0.00 | 0.00 | 0.00 | 91 | 1009.1 |
| 20260901103015 | 47 | 216 | 0.0 | 0.0 | 0.00 | 0.00 | 0.00 | 91 | 1009.0 |
| 20260901101546 | 47 | 216 | 0.0 | 0.0 | 0.00 | 0.00 | 0.00 | 91 | 1009.0 |
| 20260901100003 | 47 | 216 | 0.0 | 0.0 | 0.00 | 0.00 | 0.00 | 91 | 1009.1 |
| 20260901094504 | 47 | 216 | 0.0 | 0.0 | 0.00 | 0.00 | 0.00 | 91 | 1009.0 |
| 20260901093006 | 48 | 216 | 0.0 | 0.0 | 0.00 | 0.00 | 0.00 | 91 | 1008.9 |
| 20260901091511 | 48 | 216 | 0.0 | 0.0 | 0.00 | 0.00 | 0.00 | 90 | 1008.9 |
| 20260901090117 | 48 | 216 | 0.0 | 0.0 | 0.00 | 0.00 | 0.00 | 91 | 1009.0 |
| 20260901084602 | 48 | 216 | 0.0 | 0.0 | 0.00 | 0.00 | 0.00 | 90 | 1008.8 |
| 20260901083002 | 49 | 216 | 0.0 | 0.0 | 0.00 | 0.00 | 0.00 | 90 | 1008.8 |
| 20260901081509 | 49 | 216 | 0.0 | 0.9 | 0.00 | 0.00 | 0.00 | 90 | 1008.9 |
| 20260901080214 | 49 | 216 | 0.0 | 0.0 | 0.00 | 0.00 | 0.00 | 90 | 1008.7 |
| 20260901074602 | 49 | 216 | 0.0 | 0.0 | 0.00 | 0.00 | 0.00 | 90 | 1008.7 |
| 20260901073007 | 50 | 216 | 0.0 | 0.0 | 0.00 | 0.00 | 0.00 | 90 | 1008.6 |
| 20260901071511 | 49 | 216 | 0.0 | 0.0 | 0.00 | 0.00 | 0.00 | 90 | 1008.7 |
| 20260901070136 | 50 | 216 | 0.0 | 0.0 | 0.00 | 0.00 | 0.00 | 90 | 1008.8 |
| 20260901064610 | 50 | 216 | 0.0 | 0.0 | 0.00 | 0.00 | 0.00 | 90 | 1008.9 |
| 20260901063107 | 51 | 216 | 0.0 | 0.0 | 0.00 | 0.00 | 0.00 | 90 | 1008.9 |
| 20260901061603 | 51 | 216 | 0.0 | 0.0 | 0.00 | 0.00 | 0.00 | 90 | 1008.9 |
| 20260901060054 | 51 | 216 | 0.0 | 0.0 | 0.00 | 0.00 | 0.00 | 89 | 1009.2 |
| 20260901054551 | 51 | 216 | 0.0 | 0.0 | 0.00 | 0.00 | 0.00 | 89 | 1009.2 |
| 20260901053056 | 52 | 216 | 0.0 | 0.0 | 0.00 | 0.00 | 0.00 | 89 | 1009.2 |
| 20260901051554 | 53 | 216 | 0.0 | 0.0 | 0.00 | 0.00 | 0.00 | 88 | 1009.3 |
| 20260901050058 | 54 | 216 | 0.0 | 0.0 | 0.00 | 0.00 | 0.00 | 87 | 1009.3 |
| 20260901044611 | 55 | 216 | 0.0 | 0.0 | 0.00 | 0.00 | 0.00 | 86 | 1009.3 |
| 20260901043054 | 56 | 216 | 0.0 | 1.7 | 0.00 | 0.00 | 0.00 | 86 | 1009.2 |
| 20260901041557 | 56 | 216 | 0.0 | 0.9 | 0.00 | 0.00 | 0.00 | 85 | 1009.3 |
| 20260901040104 | 57 | 211 | 0.0 | 2.6 | 0.00 | 0.00 | 0.00 | 83 | 1009.3 |
| 20260901034552 | 57 | 214 | 0.0 | 3.5 | 0.00 | 0.00 | 0.00 | 83 | 1009.2 |
| 20260901033056 | 57 | 192 | 0.0 | 1.7 | 0.00 | 0.00 | 0.00 | 83 | 1009.1 |
| 20260901031502 | 58 | 210 | 0.9 | 3.5 | 0.00 | 0.00 | 0.00 | 82 | 1009.2 |
| 20260901030110 | 58 | 224 | 1.7 | 5.2 | 0.00 | 0.00 | 0.00 | 82 | 1009.1 |
| 20260901024601 | 59 | 215 | 2.6 | 6.1 | 0.00 | 0.00 | 0.00 | 79 | 1009.2 |
| 20260901023059 | 62 | 239 | 0.9 | 5.2 | 0.00 | 0.00 | 0.00 | 72 | 1009.2 |
| 20260901021613 | 69 | 250 | 0.0 | 1.7 | 0.00 | 0.00 | 0.00 | 60 | 1009.2 |
| 20260901020106 | 70 | 184 | 0.0 | 2.6 | 0.00 | 0.00 | 0.00 | 57 | 1009.2 |
| 20260901014552 | 70 | 209 | 0.0 | 1.7 | 0.00 | 0.00 | 0.00 | 58 | 1009.2 |
| 20260901013121 | 70 | 212 | 0.0 | 1.7 | 0.00 | 0.00 | 0.00 | 57 | 1009.2 |
| 20260901011603 | 70 | 236 | 0.0 | 2.6 | 0.00 | 0.00 | 0.00 | 55 | 1009.3 |
| 20260901010110 | 70 | 236 | 0.0 | 2.6 | 0.00 | 0.00 | 0.00 | 57 | 1009.4 |
| 20260901004550 | 69 | 232 | 0.0 | 0.9 | 0.00 | 0.00 | 0.00 | 57 | 1009.6 |
| 20260901003058 | 69 | 236 | 0.0 | 1.7 | 0.00 | 0.00 | 0.00 | 60 | 1009.7 |
| 20260901001607 | 69 | 328 | 0.0 | 1.7 | 0.00 | 0.00 | 0.00 | 59 | 1009.8 |
| 20260901000100 | 70 | 227 | 0.0 | 1.7 | 0.00 | 0.00 | 0.00 | 55 | 1009.9 |
| 20260831234544 | 70 | 330 | 0.0 | 2.6 | 0.00 | 0.00 | 0.00 | 58 | 1010.0 |
| 20260831233043 | 70 | 235 | 0.0 | 3.5 | 0.00 | 0.00 | 0.00 | 59 | 1010.2 |
| 20260831231601 | 71 | 216 | 0.0 | 3.5 | 0.00 | 0.00 | 0.00 | 57 | 1010.3 |
| 20260831230101 | 71 | 232 | 0.0 | 4.3 | 0.00 | 0.00 | 0.00 | 58 | 1010.5 |
| 20260831224611 | 71 | 228 | 0.0 | 3.5 | 0.00 | 0.00 | 0.00 | 57 | 1010.7 |
| 20260831223047 | 71 | 333 | 0.0 | 5.2 | 0.00 | 0.00 | 0.00 | 58 | 1011.0 |
| 20260831221551 | 71 | 319 | 0.0 | 2.6 | 0.00 | 0.00 | 0.00 | 58 | 1011.0 |
| 20260831220052 | 70 | 226 | 0.0 | 5.2 | 0.00 | 0.00 | 0.00 | 61 | 1011.3 |
| 20260831214540 | 70 | 252 | 1.7 | 5.2 | 0.00 | 0.00 | 0.00 | 61 | 1011.6 |
| 20260831213035 | 70 | 354 | 1.7 | 4.3 | 0.00 | 0.00 | 0.00 | 61 | 1011.8 |
| 20260831211546 | 71 | 342 | 0.9 | 4.3 | 0.00 | 0.00 | 0.00 | 61 | 1012.0 |
| 20260831210042 | 69 | 245 | 0.9 | 5.2 | 0.00 | 0.00 | 0.00 | 61 | 1012.1 |
| 20260831204533 | 69 | 355 | 0.9 | 4.3 | 0.00 | 0.00 | 0.00 | 62 | 1012.2 |
| 20260831203038 | 70 | 332 | 1.7 | 5.2 | 0.00 | 0.00 | 0.00 | 64 | 1012.4 |
| 20260831201544 | 68 | 213 | 0.9 | 4.3 | 0.00 | 0.00 | 0.00 | 66 | 1012.6 |
| 20260831200028 | 67 | 325 | 0.0 | 3.5 | 0.00 | 0.00 | 0.00 | 68 | 1012.8 |
| 20260831194541 | 67 | 346 | 0.0 | 4.3 | 0.00 | 0.00 | 0.00 | 67 | 1012.8 |
| 20260831193047 | 68 | 225 | 0.0 | 3.5 | 0.00 | 0.00 | 0.00 | 64 | 1013.0 |
| 20260831191546 | 68 | 340 | 0.9 | 6.1 | 0.00 | 0.00 | 0.00 | 65 | 1013.2 |